The request has been executed successfully.

The input positions has been matched with the following result:

Complete Path
Country code Length Speed Limit Forward Routing Segment Index Tile Id
52 79 30 61 1110201442
52 20 30 58 1110201442
52 10 30 57 1110201442
52 10 30 48 1110201442
52 22 30 52 1110201442
52 37 30 56 1110201442
52 42 30 60 1110201442
52 12 30 62 1110201442
52 0 30 55 1110201441
52 11 30 56 1110201441
52 72 50 70 1110201441
52 13 50 74 1110201441
52 36 50 77 1110201441
52 69 50 87 1110201441
52 30 50 95 1110201441
52 22 50 99 1110201441
52 66 50 102 1110201441
52 18 50 106 1110201441
52 15 50 108 1110201441
52 15 50 112 1110201441
52 74 50 118 1110201441
52 8 50 121 1110201441
52 62 50 127 1110201441
52 82 50 134 1110201441

Matched Locations
Input Id Latitude Longitude Heading Stable Path
1 49.62605083492235 6.114762731278606 247.38014 true Length= 79 SpeedLimitForward = 30 TileId=1110201442 RtgSegIdx=61
10 49.62589196209527 6.114169042249799 251.56505 true Length= 79 SpeedLimitForward = 30 TileId=1110201442 RtgSegIdx=61
Length= 20 SpeedLimitForward = 30 TileId=1110201442 RtgSegIdx=58
20 49.62570130269805 6.113848348302166 170.53767 true Length= 20 SpeedLimitForward = 30 TileId=1110201442 RtgSegIdx=58
Length= 10 SpeedLimitForward = 30 TileId=1110201442 RtgSegIdx=57
Length= 10 SpeedLimitForward = 30 TileId=1110201442 RtgSegIdx=48
Length= 22 SpeedLimitForward = 30 TileId=1110201442 RtgSegIdx=52
Length= 37 SpeedLimitForward = 30 TileId=1110201442 RtgSegIdx=56
30 49.625291633409375 6.1139915450036995 153.43495 true Length= 37 SpeedLimitForward = 30 TileId=1110201442 RtgSegIdx=56
Length= 42 SpeedLimitForward = 30 TileId=1110201442 RtgSegIdx=60
40 49.62486073985232 6.1143673874261815 149.03624 true Length= 42 SpeedLimitForward = 30 TileId=1110201442 RtgSegIdx=60
Length= 12 SpeedLimitForward = 30 TileId=1110201442 RtgSegIdx=62
Length= 0 SpeedLimitForward = 30 TileId=1110201441 RtgSegIdx=55
Length= 11 SpeedLimitForward = 30 TileId=1110201441 RtgSegIdx=56
Length= 72 SpeedLimitForward = 50 TileId=1110201441 RtgSegIdx=70
50 49.624508483948716 6.114693655161616 149.03624 true Length= 72 SpeedLimitForward = 50 TileId=1110201441 RtgSegIdx=70
60 49.624126476064816 6.115056127869514 149.03624 true Length= 72 SpeedLimitForward = 50 TileId=1110201441 RtgSegIdx=70
Length= 13 SpeedLimitForward = 50 TileId=1110201441 RtgSegIdx=74
Length= 36 SpeedLimitForward = 50 TileId=1110201441 RtgSegIdx=77
80 49.62340372989817 6.1157082384965555 149.93141 true Length= 36 SpeedLimitForward = 50 TileId=1110201441 RtgSegIdx=77
Length= 69 SpeedLimitForward = 50 TileId=1110201441 RtgSegIdx=87
110 49.62264568946824 6.116648857960982 142.59465 true Length= 69 SpeedLimitForward = 50 TileId=1110201441 RtgSegIdx=87
Length= 30 SpeedLimitForward = 50 TileId=1110201441 RtgSegIdx=95
Length= 22 SpeedLimitForward = 50 TileId=1110201441 RtgSegIdx=99
Length= 66 SpeedLimitForward = 50 TileId=1110201441 RtgSegIdx=102
120 49.621901559024764 6.117406342991515 145.61966 true Length= 66 SpeedLimitForward = 50 TileId=1110201441 RtgSegIdx=102
Length= 18 SpeedLimitForward = 50 TileId=1110201441 RtgSegIdx=106
Length= 15 SpeedLimitForward = 50 TileId=1110201441 RtgSegIdx=108
Length= 15 SpeedLimitForward = 50 TileId=1110201441 RtgSegIdx=112
Length= 74 SpeedLimitForward = 50 TileId=1110201441 RtgSegIdx=118
140 49.6211597826387 6.11818964070401 145.49147 true Length= 74 SpeedLimitForward = 50 TileId=1110201441 RtgSegIdx=118
Length= 8 SpeedLimitForward = 50 TileId=1110201441 RtgSegIdx=121
Length= 62 SpeedLimitForward = 50 TileId=1110201441 RtgSegIdx=127
160 49.62054562227419 6.1189089797613185 142.69604 true Length= 62 SpeedLimitForward = 50 TileId=1110201441 RtgSegIdx=127
Length= 82 SpeedLimitForward = 50 TileId=1110201441 RtgSegIdx=134